sensor_id;sensor_type;location;lat;lon;timestamp;temperature;humidity
44833;DHT22;30569;51.252;9.830;2022-12-18T00:01:35;-10.70;99.90
44833;DHT22;30569;51.252;9.830;2022-12-18T00:04:05;-10.40;99.90
44833;DHT22;30569;51.252;9.830;2022-12-18T00:06:31;-10.30;99.90
44833;DHT22;30569;51.252;9.830;2022-12-18T00:08:59;-10.00;99.90
44833;DHT22;30569;51.252;9.830;2022-12-18T00:11:27;-10.30;99.90
44833;DHT22;30569;51.252;9.830;2022-12-18T00:13:55;-10.30;99.90
44833;DHT22;30569;51.252;9.830;2022-12-18T00:16:22;-10.40;99.90
44833;DHT22;30569;51.252;9.830;2022-12-18T00:18:49;-10.60;99.90
44833;DHT22;30569;51.252;9.830;2022-12-18T00:21:15;-10.90;99.90
44833;DHT22;30569;51.252;9.830;2022-12-18T00:23:43;-10.60;99.90
44833;DHT22;30569;51.252;9.830;2022-12-18T00:26:24;-10.30;99.90
44833;DHT22;30569;51.252;9.830;2022-12-18T00:28:50;-10.30;99.90
44833;DHT22;30569;51.252;9.830;2022-12-18T00:31:19;-10.20;99.90
44833;DHT22;30569;51.252;9.830;2022-12-18T00:36:16;-9.60;99.90
44833;DHT22;30569;51.252;9.830;2022-12-18T00:38:42;-10.00;99.90
44833;DHT22;30569;51.252;9.830;2022-12-18T00:41:09;-10.10;99.90
44833;DHT22;30569;51.252;9.830;2022-12-18T00:43:36;-10.30;99.90
44833;DHT22;30569;51.252;9.830;2022-12-18T00:48:28;-9.90;99.90
44833;DHT22;30569;51.252;9.830;2022-12-18T00:55:46;-10.00;99.90
44833;DHT22;30569;51.252;9.830;2022-12-18T00:58:13;-10.40;99.90
44833;DHT22;30569;51.252;9.830;2022-12-18T01:00:39;-10.40;99.90
44833;DHT22;30569;51.252;9.830;2022-12-18T01:05:32;-10.20;99.90
44833;DHT22;30569;51.252;9.830;2022-12-18T01:07:58;-10.10;99.90
44833;DHT22;30569;51.252;9.830;2022-12-18T01:12:50;-10.00;99.90
44833;DHT22;30569;51.252;9.830;2022-12-18T01:15:17;-10.30;99.90
44833;DHT22;30569;51.252;9.830;2022-12-18T01:17:43;-10.30;99.90
44833;DHT22;30569;51.252;9.830;2022-12-18T01:20:10;-10.30;99.90
44833;DHT22;30569;51.252;9.830;2022-12-18T01:27:28;-10.10;99.90
44833;DHT22;30569;51.252;9.830;2022-12-18T01:32:19;-10.40;99.90
44833;DHT22;30569;51.252;9.830;2022-12-18T01:42:12;-10.20;99.90
44833;DHT22;30569;51.252;9.830;2022-12-18T01:47:35;-10.40;99.90
44833;DHT22;30569;51.252;9.830;2022-12-18T01:52:43;-10.40;99.90
44833;DHT22;30569;51.252;9.830;2022-12-18T01:55:11;-10.90;99.90
44833;DHT22;30569;51.252;9.830;2022-12-18T01:57:39;-11.10;99.90
44833;DHT22;30569;51.252;9.830;2022-12-18T02:00:10;-11.20;99.90
44833;DHT22;30569;51.252;9.830;2022-12-18T02:02:36;-10.80;99.90
44833;DHT22;30569;51.252;9.830;2022-12-18T02:05:03;-10.60;99.90
44833;DHT22;30569;51.252;9.830;2022-12-18T02:07:37;-10.40;99.90
44833;DHT22;30569;51.252;9.830;2022-12-18T02:10:19;-10.60;99.90
44833;DHT22;30569;51.252;9.830;2022-12-18T02:12:58;-11.20;99.90
44833;DHT22;30569;51.252;9.830;2022-12-18T02:15:35;-11.10;99.90
44833;DHT22;30569;51.252;9.830;2022-12-18T02:18:16;-10.90;99.90
44833;DHT22;30569;51.252;9.830;2022-12-18T02:23:47;-10.40;99.90
44833;DHT22;30569;51.252;9.830;2022-12-18T02:28:58;-10.90;99.90
44833;DHT22;30569;51.252;9.830;2022-12-18T02:31:28;-11.10;99.90
44833;DHT22;30569;51.252;9.830;2022-12-18T02:34:00;-11.10;99.90
44833;DHT22;30569;51.252;9.830;2022-12-18T02:36:28;-10.60;99.90
44833;DHT22;30569;51.252;9.830;2022-12-18T02:38:54;-10.60;99.90
44833;DHT22;30569;51.252;9.830;2022-12-18T02:41:24;-10.70;99.90
44833;DHT22;30569;51.252;9.830;2022-12-18T02:43:56;-10.70;99.90
44833;DHT22;30569;51.252;9.830;2022-12-18T02:49:05;-10.60;99.90
44833;DHT22;30569;51.252;9.830;2022-12-18T02:51:50;-10.80;99.90
44833;DHT22;30569;51.252;9.830;2022-12-18T02:57:19;-10.70;99.90
44833;DHT22;30569;51.252;9.830;2022-12-18T03:00:04;-10.90;99.90
44833;DHT22;30569;51.252;9.830;2022-12-18T03:02:45;-10.90;99.90
44833;DHT22;30569;51.252;9.830;2022-12-18T03:05:16;-11.00;99.90
44833;DHT22;30569;51.252;9.830;2022-12-18T03:07:53;-10.90;99.90
44833;DHT22;30569;51.252;9.830;2022-12-18T03:10:25;-10.70;99.90
44833;DHT22;30569;51.252;9.830;2022-12-18T03:12:55;-10.90;99.90
44833;DHT22;30569;51.252;9.830;2022-12-18T03:15:29;-10.80;99.90
44833;DHT22;30569;51.252;9.830;2022-12-18T03:18:16;-10.40;99.90
44833;DHT22;30569;51.252;9.830;2022-12-18T03:20:44;-10.60;99.90
44833;DHT22;30569;51.252;9.830;2022-12-18T03:23:14;-10.60;99.90
44833;DHT22;30569;51.252;9.830;2022-12-18T03:25:42;-10.50;99.90
44833;DHT22;30569;51.252;9.830;2022-12-18T03:28:17;-9.70;99.90
44833;DHT22;30569;51.252;9.830;2022-12-18T03:30:46;-10.60;99.90
44833;DHT22;30569;51.252;9.830;2022-12-18T03:33:32;-10.30;99.90
44833;DHT22;30569;51.252;9.830;2022-12-18T03:38:25;-10.60;99.90
44833;DHT22;30569;51.252;9.830;2022-12-18T03:44:06;-10.60;99.90
44833;DHT22;30569;51.252;9.830;2022-12-18T03:46:45;-10.80;99.90
44833;DHT22;30569;51.252;9.830;2022-12-18T03:49:19;-10.80;99.90
44833;DHT22;30569;51.252;9.830;2022-12-18T03:52:01;-11.30;99.90
44833;DHT22;30569;51.252;9.830;2022-12-18T03:54:29;-11.50;99.90
44833;DHT22;30569;51.252;9.830;2022-12-18T03:57:18;-11.30;99.90
44833;DHT22;30569;51.252;9.830;2022-12-18T03:59:48;-11.30;99.90
44833;DHT22;30569;51.252;9.830;2022-12-18T04:02:16;-11.30;99.90
44833;DHT22;30569;51.252;9.830;2022-12-18T04:04:43;-10.60;99.90
44833;DHT22;30569;51.252;9.830;2022-12-18T04:07:10;-11.00;99.90
44833;DHT22;30569;51.252;9.830;2022-12-18T04:09:38;-10.90;99.90
44833;DHT22;30569;51.252;9.830;2022-12-18T04:12:04;-10.70;99.90
44833;DHT22;30569;51.252;9.830;2022-12-18T04:17:01;-10.70;99.90
44833;DHT22;30569;51.252;9.830;2022-12-18T04:24:19;-10.70;99.90
44833;DHT22;30569;51.252;9.830;2022-12-18T04:29:10;-11.00;99.90
44833;DHT22;30569;51.252;9.830;2022-12-18T04:36:28;-10.60;99.90
44833;DHT22;30569;51.252;9.830;2022-12-18T04:48:38;-10.90;99.90
44833;DHT22;30569;51.252;9.830;2022-12-18T04:51:05;-11.00;99.90
44833;DHT22;30569;51.252;9.830;2022-12-18T04:53:31;-11.00;99.90
44833;DHT22;30569;51.252;9.830;2022-12-18T04:56:04;-10.80;99.90
44833;DHT22;30569;51.252;9.830;2022-12-18T04:58:30;-10.90;99.90
44833;DHT22;30569;51.252;9.830;2022-12-18T05:00:56;-11.30;99.90
44833;DHT22;30569;51.252;9.830;2022-12-18T05:05:51;-11.20;99.90
44833;DHT22;30569;51.252;9.830;2022-12-18T05:08:17;-11.00;99.90
44833;DHT22;30569;51.252;9.830;2022-12-18T05:10:43;-10.80;99.90
44833;DHT22;30569;51.252;9.830;2022-12-18T05:15:35;-10.50;99.90
44833;DHT22;30569;51.252;9.830;2022-12-18T05:18:01;-11.00;99.90
44833;DHT22;30569;51.252;9.830;2022-12-18T05:20:27;-11.00;99.90
44833;DHT22;30569;51.252;9.830;2022-12-18T05:22:53;-11.00;99.90
44833;DHT22;30569;51.252;9.830;2022-12-18T05:27:45;-10.90;99.90
44833;DHT22;30569;51.252;9.830;2022-12-18T05:30:12;-11.10;99.90
44833;DHT22;30569;51.252;9.830;2022-12-18T05:32:38;-10.90;99.90
44833;DHT22;30569;51.252;9.830;2022-12-18T05:35:07;-10.90;99.90
44833;DHT22;30569;51.252;9.830;2022-12-18T05:39:59;-10.90;99.90
44833;DHT22;30569;51.252;9.830;2022-12-18T05:47:16;-10.90;99.90
44833;DHT22;30569;51.252;9.830;2022-12-18T05:52:08;-11.10;99.90
44833;DHT22;30569;51.252;9.830;2022-12-18T05:54:34;-10.60;99.90
44833;DHT22;30569;51.252;9.830;2022-12-18T05:59:26;-11.30;99.90
44833;DHT22;30569;51.252;9.830;2022-12-18T06:06:43;-11.00;99.90
44833;DHT22;30569;51.252;9.830;2022-12-18T06:11:38;-10.80;99.90
44833;DHT22;30569;51.252;9.830;2022-12-18T06:14:05;-10.60;99.90
44833;DHT22;30569;51.252;9.830;2022-12-18T06:16:32;-10.70;99.90
44833;DHT22;30569;51.252;9.830;2022-12-18T06:19:02;-10.90;99.90
44833;DHT22;30569;51.252;9.830;2022-12-18T06:21:29;-10.70;99.90
44833;DHT22;30569;51.252;9.830;2022-12-18T06:23:55;-10.60;99.90
44833;DHT22;30569;51.252;9.830;2022-12-18T06:31:13;-10.80;99.90
44833;DHT22;30569;51.252;9.830;2022-12-18T06:36:10;-10.90;99.90
44833;DHT22;30569;51.252;9.830;2022-12-18T06:38:39;-11.10;99.90
44833;DHT22;30569;51.252;9.830;2022-12-18T06:43:34;-10.90;99.90
44833;DHT22;30569;51.252;9.830;2022-12-18T06:46:00;-10.90;99.90
44833;DHT22;30569;51.252;9.830;2022-12-18T06:48:26;-10.80;99.90
44833;DHT22;30569;51.252;9.830;2022-12-18T06:50:52;-10.80;99.90
44833;DHT22;30569;51.252;9.830;2022-12-18T07:03:01;-11.00;99.90
44833;DHT22;30569;51.252;9.830;2022-12-18T07:15:10;-11.00;99.90
44833;DHT22;30569;51.252;9.830;2022-12-18T07:17:36;-11.20;99.90
44833;DHT22;30569;51.252;9.830;2022-12-18T07:22:28;-11.30;99.90
44833;DHT22;30569;51.252;9.830;2022-12-18T07:27:21;-10.80;99.90
44833;DHT22;30569;51.252;9.830;2022-12-18T07:29:47;-11.10;99.90
44833;DHT22;30569;51.252;9.830;2022-12-18T07:39:30;-11.00;99.90
44833;DHT22;30569;51.252;9.830;2022-12-18T07:44:41;-11.00;99.90
44833;DHT22;30569;51.252;9.830;2022-12-18T07:47:06;-11.00;99.90
44833;DHT22;30569;51.252;9.830;2022-12-18T07:49:33;-11.10;99.90
44833;DHT22;30569;51.252;9.830;2022-12-18T07:51:58;-11.10;99.90
44833;DHT22;30569;51.252;9.830;2022-12-18T07:54:24;-11.30;99.90
44833;DHT22;30569;51.252;9.830;2022-12-18T07:56:51;-11.00;99.90
44833;DHT22;30569;51.252;9.830;2022-12-18T07:59:17;-10.90;99.90
44833;DHT22;30569;51.252;9.830;2022-12-18T08:01:43;-10.70;99.90
44833;DHT22;30569;51.252;9.830;2022-12-18T08:04:09;-10.00;99.90
44833;DHT22;30569;51.252;9.830;2022-12-18T08:11:28;-10.70;99.90
44833;DHT22;30569;51.252;9.830;2022-12-18T08:16:20;-10.40;99.90
44833;DHT22;30569;51.252;9.830;2022-12-18T08:21:15;-10.20;99.90
44833;DHT22;30569;51.252;9.830;2022-12-18T08:26:11;-10.30;99.90
44833;DHT22;30569;51.252;9.830;2022-12-18T08:45:58;-10.90;99.90
44833;DHT22;30569;51.252;9.830;2022-12-18T08:48:24;-10.30;99.90
44833;DHT22;30569;51.252;9.830;2022-12-18T08:50:57;-10.10;99.90
44833;DHT22;30569;51.252;9.830;2022-12-18T08:53:27;-10.20;99.90
44833;DHT22;30569;51.252;9.830;2022-12-18T08:55:52;-10.30;99.90
44833;DHT22;30569;51.252;9.830;2022-12-18T09:03:15;-9.90;99.90
44833;DHT22;30569;51.252;9.830;2022-12-18T09:05:41;-9.70;99.90
44833;DHT22;30569;51.252;9.830;2022-12-18T09:08:06;-9.70;99.90
44833;DHT22;30569;51.252;9.830;2022-12-18T09:10:32;-8.80;99.90
44833;DHT22;30569;51.252;9.830;2022-12-18T09:25:10;-7.50;99.90
44833;DHT22;30569;51.252;9.830;2022-12-18T09:27:35;-7.20;99.90
44833;DHT22;30569;51.252;9.830;2022-12-18T09:30:02;-6.90;99.90
44833;DHT22;30569;51.252;9.830;2022-12-18T09:32:28;-6.70;99.90
44833;DHT22;30569;51.252;9.830;2022-12-18T09:37:19;-6.40;99.90
44833;DHT22;30569;51.252;9.830;2022-12-18T09:42:21;-5.60;99.90
44833;DHT22;30569;51.252;9.830;2022-12-18T09:44:53;-5.30;99.90
44833;DHT22;30569;51.252;9.830;2022-12-18T09:47:28;-4.90;99.90
44833;DHT22;30569;51.252;9.830;2022-12-18T09:49:59;-4.20;99.90
44833;DHT22;30569;51.252;9.830;2022-12-18T09:52:37;-4.40;99.90
44833;DHT22;30569;51.252;9.830;2022-12-18T09:55:24;-4.30;99.90
44833;DHT22;30569;51.252;9.830;2022-12-18T09:57:56;-3.80;99.90
44833;DHT22;30569;51.252;9.830;2022-12-18T10:00:23;-3.50;99.90
44833;DHT22;30569;51.252;9.830;2022-12-18T10:02:51;-3.10;99.90
44833;DHT22;30569;51.252;9.830;2022-12-18T10:05:33;-2.80;99.90
44833;DHT22;30569;51.252;9.830;2022-12-18T10:08:11;-2.50;99.90
44833;DHT22;30569;51.252;9.830;2022-12-18T10:10:57;-1.60;99.90
44833;DHT22;30569;51.252;9.830;2022-12-18T10:13:51;-2.00;99.90
44833;DHT22;30569;51.252;9.830;2022-12-18T10:16:25;-2.40;99.90
44833;DHT22;30569;51.252;9.830;2022-12-18T10:22:07;-2.20;99.90
44833;DHT22;30569;51.252;9.830;2022-12-18T10:27:16;-1.70;99.90
44833;DHT22;30569;51.252;9.830;2022-12-18T10:29:43;-1.60;99.90
44833;DHT22;30569;51.252;9.830;2022-12-18T10:32:18;-1.40;99.90
44833;DHT22;30569;51.252;9.830;2022-12-18T10:34:49;-1.50;99.90
44833;DHT22;30569;51.252;9.830;2022-12-18T10:37:18;-1.60;99.90
44833;DHT22;30569;51.252;9.830;2022-12-18T10:39:45;-1.40;99.90
44833;DHT22;30569;51.252;9.830;2022-12-18T10:42:17;-1.40;99.90
44833;DHT22;30569;51.252;9.830;2022-12-18T10:44:42;-1.10;99.90
44833;DHT22;30569;51.252;9.830;2022-12-18T10:47:14;-0.90;99.90
44833;DHT22;30569;51.252;9.830;2022-12-18T10:49:48;-0.70;99.90
44833;DHT22;30569;51.252;9.830;2022-12-18T10:54:56;-0.90;99.90
44833;DHT22;30569;51.252;9.830;2022-12-18T10:59:56;-1.40;99.90
44833;DHT22;30569;51.252;9.830;2022-12-18T11:02:37;-1.60;99.90
44833;DHT22;30569;51.252;9.830;2022-12-18T11:05:22;-1.60;99.90
44833;DHT22;30569;51.252;9.830;2022-12-18T11:07:50;-1.20;99.90
44833;DHT22;30569;51.252;9.830;2022-12-18T11:10:18;-1.20;99.90
44833;DHT22;30569;51.252;9.830;2022-12-18T11:12:44;-1.10;99.90
44833;DHT22;30569;51.252;9.830;2022-12-18T11:15:39;-1.10;99.90
44833;DHT22;30569;51.252;9.830;2022-12-18T11:18:35;-1.40;99.90
44833;DHT22;30569;51.252;9.830;2022-12-18T11:21:09;-1.20;99.90
44833;DHT22;30569;51.252;9.830;2022-12-18T11:23:37;-0.90;99.90
44833;DHT22;30569;51.252;9.830;2022-12-18T11:26:10;-0.90;99.90
44833;DHT22;30569;51.252;9.830;2022-12-18T11:28:38;-0.70;99.90
44833;DHT22;30569;51.252;9.830;2022-12-18T11:31:18;-0.30;99.90
44833;DHT22;30569;51.252;9.830;2022-12-18T11:36:14;-0.30;99.90
44833;DHT22;30569;51.252;9.830;2022-12-18T11:38:42;-0.70;99.90
44833;DHT22;30569;51.252;9.830;2022-12-18T11:41:26;-0.80;99.90
44833;DHT22;30569;51.252;9.830;2022-12-18T11:44:35;-0.10;99.90
44833;DHT22;30569;51.252;9.830;2022-12-18T11:49:48;-0.40;99.90
44833;DHT22;30569;51.252;9.830;2022-12-18T11:52:36;-0.30;99.90
44833;DHT22;30569;51.252;9.830;2022-12-18T11:55:10;-0.10;99.90
44833;DHT22;30569;51.252;9.830;2022-12-18T12:00:20;0.00;99.90
44833;DHT22;30569;51.252;9.830;2022-12-18T12:16:23;0.00;99.90
44833;DHT22;30569;51.252;9.830;2022-12-18T12:30:10;-1.30;99.90
44833;DHT22;30569;51.252;9.830;2022-12-18T12:40:27;-0.10;99.90
44833;DHT22;30569;51.252;9.830;2022-12-18T12:43:02;0.10;99.90
44833;DHT22;30569;51.252;9.830;2022-12-18T12:45:54;0.50;99.90
44833;DHT22;30569;51.252;9.830;2022-12-18T12:51:00;0.40;99.90
44833;DHT22;30569;51.252;9.830;2022-12-18T12:53:31;-0.60;99.90
44833;DHT22;30569;51.252;9.830;2022-12-18T12:55:58;-0.10;99.90
44833;DHT22;30569;51.252;9.830;2022-12-18T12:58:41;-0.40;99.90
44833;DHT22;30569;51.252;9.830;2022-12-18T13:03:55;-1.00;99.90
44833;DHT22;30569;51.252;9.830;2022-12-18T13:09:20;-0.10;99.90
44833;DHT22;30569;51.252;9.830;2022-12-18T13:11:46;0.00;99.90
44833;DHT22;30569;51.252;9.830;2022-12-18T13:14:36;-0.20;99.90
44833;DHT22;30569;51.252;9.830;2022-12-18T13:20:10;0.40;99.90
44833;DHT22;30569;51.252;9.830;2022-12-18T13:22:39;0.80;99.90
44833;DHT22;30569;51.252;9.830;2022-12-18T13:25:28;0.30;99.90
44833;DHT22;30569;51.252;9.830;2022-12-18T13:28:02;-0.70;99.90
44833;DHT22;30569;51.252;9.830;2022-12-18T13:35:52;-0.10;99.90
44833;DHT22;30569;51.252;9.830;2022-12-18T13:40:55;-0.60;99.90
44833;DHT22;30569;51.252;9.830;2022-12-18T13:43:26;-0.20;99.90
44833;DHT22;30569;51.252;9.830;2022-12-18T13:46:16;-0.80;99.90
44833;DHT22;30569;51.252;9.830;2022-12-18T13:49:15;-0.40;99.90
44833;DHT22;30569;51.252;9.830;2022-12-18T13:51:35;-0.20;99.90
44833;DHT22;30569;51.252;9.830;2022-12-18T13:54:05;-0.20;99.90
44833;DHT22;30569;51.252;9.830;2022-12-18T13:56:44;0.00;99.80
44833;DHT22;30569;51.252;9.830;2022-12-18T13:59:21;-0.30;99.90
44833;DHT22;30569;51.252;9.830;2022-12-18T14:01:56;-0.10;99.90
44833;DHT22;30569;51.252;9.830;2022-12-18T14:04:30;-0.60;99.40
44833;DHT22;30569;51.252;9.830;2022-12-18T14:06:57;-0.50;98.60
44833;DHT22;30569;51.252;9.830;2022-12-18T14:09:26;-0.20;99.40
44833;DHT22;30569;51.252;9.830;2022-12-18T14:11:53;0.00;98.40
44833;DHT22;30569;51.252;9.830;2022-12-18T14:14:43;-0.30;98.80
44833;DHT22;30569;51.252;9.830;2022-12-18T14:17:13;-0.70;98.90
44833;DHT22;30569;51.252;9.830;2022-12-18T14:19:45;-1.00;98.30
44833;DHT22;30569;51.252;9.830;2022-12-18T14:22:20;-0.50;99.10
44833;DHT22;30569;51.252;9.830;2022-12-18T14:24:47;-0.30;99.20
44833;DHT22;30569;51.252;9.830;2022-12-18T14:27:23;0.20;99.70
44833;DHT22;30569;51.252;9.830;2022-12-18T14:29:49;-0.20;99.90
44833;DHT22;30569;51.252;9.830;2022-12-18T14:32:17;0.40;99.90
44833;DHT22;30569;51.252;9.830;2022-12-18T14:34:45;0.40;99.80
44833;DHT22;30569;51.252;9.830;2022-12-18T14:37:17;0.40;99.90
44833;DHT22;30569;51.252;9.830;2022-12-18T14:39:57;-0.80;99.90
44833;DHT22;30569;51.252;9.830;2022-12-18T14:42:24;-1.10;99.90
44833;DHT22;30569;51.252;9.830;2022-12-18T14:47:43;-1.20;99.90
44833;DHT22;30569;51.252;9.830;2022-12-18T14:50:13;-1.20;99.90
44833;DHT22;30569;51.252;9.830;2022-12-18T14:55:05;-1.00;99.90
44833;DHT22;30569;51.252;9.830;2022-12-18T14:57:39;-1.10;99.90
44833;DHT22;30569;51.252;9.830;2022-12-18T15:00:18;-1.10;99.90
44833;DHT22;30569;51.252;9.830;2022-12-18T15:02:50;-2.00;99.90
44833;DHT22;30569;51.252;9.830;2022-12-18T15:05:20;-1.80;99.90
44833;DHT22;30569;51.252;9.830;2022-12-18T15:07:48;-1.90;99.90
44833;DHT22;30569;51.252;9.830;2022-12-18T15:10:24;-2.00;99.90
44833;DHT22;30569;51.252;9.830;2022-12-18T15:18:05;-2.10;99.90
44833;DHT22;30569;51.252;9.830;2022-12-18T15:20:50;-2.00;99.90
44833;DHT22;30569;51.252;9.830;2022-12-18T15:25:58;-1.70;99.90
44833;DHT22;30569;51.252;9.830;2022-12-18T15:28:38;-1.60;99.90
44833;DHT22;30569;51.252;9.830;2022-12-18T15:34:29;-1.00;99.90
44833;DHT22;30569;51.252;9.830;2022-12-18T15:36:30;-1.30;99.90
44833;DHT22;30569;51.252;9.830;2022-12-18T15:38:56;-1.00;99.90
44833;DHT22;30569;51.252;9.830;2022-12-18T15:41:23;-1.10;99.90
44833;DHT22;30569;51.252;9.830;2022-12-18T15:43:50;-1.10;99.90
44833;DHT22;30569;51.252;9.830;2022-12-18T15:46:21;-1.10;99.90
44833;DHT22;30569;51.252;9.830;2022-12-18T15:48:49;-0.90;99.90
44833;DHT22;30569;51.252;9.830;2022-12-18T15:51:20;-1.20;99.90
44833;DHT22;30569;51.252;9.830;2022-12-18T15:53:48;-1.10;99.90
44833;DHT22;30569;51.252;9.830;2022-12-18T15:56:16;-1.00;99.90
44833;DHT22;30569;51.252;9.830;2022-12-18T15:59:01;-1.10;99.90
44833;DHT22;30569;51.252;9.830;2022-12-18T16:01:28;-0.90;99.90
44833;DHT22;30569;51.252;9.830;2022-12-18T16:03:54;-1.00;99.90
44833;DHT22;30569;51.252;9.830;2022-12-18T16:06:23;-1.20;99.90
44833;DHT22;30569;51.252;9.830;2022-12-18T16:08:49;-0.90;99.90
44833;DHT22;30569;51.252;9.830;2022-12-18T16:11:28;-0.90;99.90
44833;DHT22;30569;51.252;9.830;2022-12-18T16:16:47;-1.20;99.90
44833;DHT22;30569;51.252;9.830;2022-12-18T16:19:14;-1.30;99.90
44833;DHT22;30569;51.252;9.830;2022-12-18T16:21:39;-1.60;99.90
44833;DHT22;30569;51.252;9.830;2022-12-18T16:24:05;-1.50;99.90
44833;DHT22;30569;51.252;9.830;2022-12-18T16:26:34;-1.60;99.90
44833;DHT22;30569;51.252;9.830;2022-12-18T16:28:59;-1.40;99.90
44833;DHT22;30569;51.252;9.830;2022-12-18T16:31:25;-1.50;99.90
44833;DHT22;30569;51.252;9.830;2022-12-18T16:34:22;-1.10;99.90
44833;DHT22;30569;51.252;9.830;2022-12-18T16:36:51;-1.30;99.90
44833;DHT22;30569;51.252;9.830;2022-12-18T16:39:19;-1.40;99.90
44833;DHT22;30569;51.252;9.830;2022-12-18T16:44:11;-1.30;99.90
44833;DHT22;30569;51.252;9.830;2022-12-18T16:46:37;-1.30;99.90
44833;DHT22;30569;51.252;9.830;2022-12-18T16:49:04;-1.40;99.90
44833;DHT22;30569;51.252;9.830;2022-12-18T16:51:33;-1.40;99.90
44833;DHT22;30569;51.252;9.830;2022-12-18T17:11:06;-1.30;99.90
44833;DHT22;30569;51.252;9.830;2022-12-18T17:13:32;-1.10;99.90
44833;DHT22;30569;51.252;9.830;2022-12-18T17:16:05;-1.40;99.90
44833;DHT22;30569;51.252;9.830;2022-12-18T17:18:32;-1.20;99.90
44833;DHT22;30569;51.252;9.830;2022-12-18T17:20:59;-1.50;99.90
44833;DHT22;30569;51.252;9.830;2022-12-18T17:25:58;-1.80;99.90
44833;DHT22;30569;51.252;9.830;2022-12-18T17:28:25;-2.20;99.90
44833;DHT22;30569;51.252;9.830;2022-12-18T17:50:19;-1.90;99.90
44833;DHT22;30569;51.252;9.830;2022-12-18T18:00:04;-1.50;99.90
44833;DHT22;30569;51.252;9.830;2022-12-18T18:02:30;-1.90;99.90
44833;DHT22;30569;51.252;9.830;2022-12-18T18:12:14;-1.90;99.90
44833;DHT22;30569;51.252;9.830;2022-12-18T18:14:58;-1.80;99.90
44833;DHT22;30569;51.252;9.830;2022-12-18T18:17:23;-1.40;99.90
44833;DHT22;30569;51.252;9.830;2022-12-18T18:19:54;-1.90;99.90
44833;DHT22;30569;51.252;9.830;2022-12-18T18:22:19;-1.90;99.90
44833;DHT22;30569;51.252;9.830;2022-12-18T18:24:45;-2.00;99.90
44833;DHT22;30569;51.252;9.830;2022-12-18T18:27:11;-2.00;99.90
44833;DHT22;30569;51.252;9.830;2022-12-18T18:32:02;-2.40;99.90
44833;DHT22;30569;51.252;9.830;2022-12-18T18:34:30;-2.50;99.90
44833;DHT22;30569;51.252;9.830;2022-12-18T18:36:59;-2.60;99.90
44833;DHT22;30569;51.252;9.830;2022-12-18T18:39:25;-2.70;99.90
44833;DHT22;30569;51.252;9.830;2022-12-18T18:41:51;-2.70;99.90
44833;DHT22;30569;51.252;9.830;2022-12-18T18:44:18;-2.60;99.90
44833;DHT22;30569;51.252;9.830;2022-12-18T18:49:11;-2.60;99.90
44833;DHT22;30569;51.252;9.830;2022-12-18T18:58:56;-1.70;99.90
44833;DHT22;30569;51.252;9.830;2022-12-18T19:06:18;-1.90;99.90
44833;DHT22;30569;51.252;9.830;2022-12-18T19:11:11;-1.60;99.90
44833;DHT22;30569;51.252;9.830;2022-12-18T19:13:57;-1.60;99.90
44833;DHT22;30569;51.252;9.830;2022-12-18T19:16:25;-1.60;99.90
44833;DHT22;30569;51.252;9.830;2022-12-18T19:21:17;-1.10;99.90
44833;DHT22;30569;51.252;9.830;2022-12-18T19:26:10;-1.30;99.90
44833;DHT22;30569;51.252;9.830;2022-12-18T19:28:36;-1.40;99.90
44833;DHT22;30569;51.252;9.830;2022-12-18T19:31:05;-1.20;99.90
44833;DHT22;30569;51.252;9.830;2022-12-18T19:33:33;-1.40;99.90
44833;DHT22;30569;51.252;9.830;2022-12-18T19:40:51;-0.50;99.90
44833;DHT22;30569;51.252;9.830;2022-12-18T19:50:39;-1.70;99.90
44833;DHT22;30569;51.252;9.830;2022-12-18T20:10:12;-1.80;99.90
44833;DHT22;30569;51.252;9.830;2022-12-18T20:12:38;-1.50;99.90
44833;DHT22;30569;51.252;9.830;2022-12-18T20:15:04;-1.60;99.90
44833;DHT22;30569;51.252;9.830;2022-12-18T20:17:29;-1.60;99.90
44833;DHT22;30569;51.252;9.830;2022-12-18T20:19:55;-1.30;99.90
44833;DHT22;30569;51.252;9.830;2022-12-18T20:22:20;-1.10;99.90
44833;DHT22;30569;51.252;9.830;2022-12-18T20:24:46;-1.30;99.90
44833;DHT22;30569;51.252;9.830;2022-12-18T20:29:38;-1.70;99.90
44833;DHT22;30569;51.252;9.830;2022-12-18T20:32:04;-1.30;99.90
44833;DHT22;30569;51.252;9.830;2022-12-18T20:44:16;-1.30;99.90
44833;DHT22;30569;51.252;9.830;2022-12-18T20:49:08;-0.90;99.90
44833;DHT22;30569;51.252;9.830;2022-12-18T20:51:34;-0.80;99.90
44833;DHT22;30569;51.252;9.830;2022-12-18T20:56:26;-1.20;99.90
44833;DHT22;30569;51.252;9.830;2022-12-18T20:58:56;-1.40;99.90
44833;DHT22;30569;51.252;9.830;2022-12-18T21:01:23;-1.50;99.90
44833;DHT22;30569;51.252;9.830;2022-12-18T21:03:50;-1.40;99.90
44833;DHT22;30569;51.252;9.830;2022-12-18T21:06:17;-1.70;99.90
44833;DHT22;30569;51.252;9.830;2022-12-18T21:08:43;-1.30;99.90
44833;DHT22;30569;51.252;9.830;2022-12-18T21:16:36;-1.30;99.90
44833;DHT22;30569;51.252;9.830;2022-12-18T21:21:28;-1.70;99.90
44833;DHT22;30569;51.252;9.830;2022-12-18T21:26:27;-1.70;99.90
44833;DHT22;30569;51.252;9.830;2022-12-18T21:28:54;-1.60;99.90
44833;DHT22;30569;51.252;9.830;2022-12-18T21:31:21;-1.60;99.90
44833;DHT22;30569;51.252;9.830;2022-12-18T21:33:48;-1.20;99.90
44833;DHT22;30569;51.252;9.830;2022-12-18T21:36:13;-1.70;99.90
44833;DHT22;30569;51.252;9.830;2022-12-18T21:41:09;-1.80;99.90
44833;DHT22;30569;51.252;9.830;2022-12-18T21:43:38;-1.60;99.90
44833;DHT22;30569;51.252;9.830;2022-12-18T21:46:22;-1.50;99.90
44833;DHT22;30569;51.252;9.830;2022-12-18T21:48:47;-1.40;99.90
44833;DHT22;30569;51.252;9.830;2022-12-18T21:51:13;-1.60;99.90
44833;DHT22;30569;51.252;9.830;2022-12-18T21:53:38;-1.60;99.90
44833;DHT22;30569;51.252;9.830;2022-12-18T21:56:04;-1.50;99.90
44833;DHT22;30569;51.252;9.830;2022-12-18T22:00:56;-0.80;99.90
44833;DHT22;30569;51.252;9.830;2022-12-18T22:03:21;-1.20;99.90
44833;DHT22;30569;51.252;9.830;2022-12-18T22:05:47;-1.50;99.90
44833;DHT22;30569;51.252;9.830;2022-12-18T22:08:13;-1.50;99.90
44833;DHT22;30569;51.252;9.830;2022-12-18T22:10:38;-1.40;99.90
44833;DHT22;30569;51.252;9.830;2022-12-18T22:13:05;-1.60;99.90
44833;DHT22;30569;51.252;9.830;2022-12-18T22:15:31;-1.50;99.90
44833;DHT22;30569;51.252;9.830;2022-12-18T22:20:23;-1.30;99.90
44833;DHT22;30569;51.252;9.830;2022-12-18T22:27:42;-1.20;99.90
44833;DHT22;30569;51.252;9.830;2022-12-18T22:30:28;-1.20;99.90
44833;DHT22;30569;51.252;9.830;2022-12-18T22:32:53;-1.50;99.90
44833;DHT22;30569;51.252;9.830;2022-12-18T22:40:17;-1.40;99.90
44833;DHT22;30569;51.252;9.830;2022-12-18T22:42:43;-1.20;99.90
44833;DHT22;30569;51.252;9.830;2022-12-18T22:45:09;-1.50;99.90
44833;DHT22;30569;51.252;9.830;2022-12-18T22:50:01;-1.40;99.90
44833;DHT22;30569;51.252;9.830;2022-12-18T22:52:26;-1.40;99.90
44833;DHT22;30569;51.252;9.830;2022-12-18T22:54:52;-1.30;99.90
44833;DHT22;30569;51.252;9.830;2022-12-18T22:57:18;-1.00;99.90
44833;DHT22;30569;51.252;9.830;2022-12-18T22:59:44;-1.50;99.90
44833;DHT22;30569;51.252;9.830;2022-12-18T23:07:01;-1.40;99.90
44833;DHT22;30569;51.252;9.830;2022-12-18T23:11:53;-1.30;99.90
44833;DHT22;30569;51.252;9.830;2022-12-18T23:14:18;-1.60;99.90